CheckWX is a tool to help pilots better visualize weather data.  It is not intended as a substitute for an official pre-flight weather briefing.

09:25:41 UTC

KSKF TAF
Kelly Field Airport
San Antonio, Texas, USA
TAF AMD KSKF 220800Z 2208/2308 13009KT 9999 OVC012 QNH2965INS TEMPO 2208/2213 OVC009 BECMG 2215/2216 15012G18KT 9999 BKN012 OVC020 510022 QNH2975INS BECMG 2217/2218 15012G20KT 9999 SCT025 BKN040 510022 QNH2968INS TEMPO 2218/2301 14015G25KT BECMG 2301/2302 13015G25KT 9999 BKN018 510022 QNH2974INS TX33/2221Z TN22/2212Z

May-22@
08:00 UTC

May-22 @ 08:00 UTC

May-22@
15:00 UTC

May-22 @ 15:00 UTC

TAF AMD KSKF 220800Z 2208/2308 13009KT 9999 OVC012 QNH2965INS
Wind
  • 130° at 9 KTS
Cloud Levels
  • Overcast at 1,200' AGL

May-22@
08:00 UTC

May-22 @ 08:00 UTC

May-22@
13:00 UTC

May-22 @ 13:00 UTC

TEMPO 2208/2213 OVC009

Temporary

Temporary Changes expected for less than half the time period

Cloud Levels
  • Overcast at 900' AGL

May-22@
15:00 UTC

May-22 @ 15:00 UTC

May-22@
17:00 UTC

May-22 @ 17:00 UTC

BECMG 2215/2216 15012G18KT 9999 BKN012 OVC020 510022 QNH2975INS

Becoming

Becoming Conditions expected by Wed, May 22, 2019 @ 16:00 UTC

Wind
  • 150° at 12 KTS
  • {Gusting to 18 KTS
Cloud Levels
  • Broken at 1,200' AGL
  • Overcast at 2,000' AGL
Turbulence
< Light turbulence expected at 200' AGL extending to 2,200' AGL

May-22@
17:00 UTC

May-22 @ 17:00 UTC

May-23@
01:00 UTC

May-23 @ 01:00 UTC

BECMG 2217/2218 15012G20KT 9999 SCT025 BKN040 510022 QNH2968INS

Becoming

Becoming Conditions expected by Wed, May 22, 2019 @ 18:00 UTC

Wind
  • 150° at 12 KTS
  • {Gusting to 20 KTS
Cloud Levels
  • Scattered at 2,500' AGL
  • Broken at 4,000' AGL
Turbulence
< Light turbulence expected at 200' AGL extending to 2,200' AGL

May-22@
18:00 UTC

May-22 @ 18:00 UTC

May-23@
01:00 UTC

May-23 @ 01:00 UTC

TEMPO 2218/2301 14015G25KT

Temporary

Temporary Changes expected for less than half the time period

Wind
  • 140° at 15 KTS
  • {Gusting to 25 KTS

May-23@
01:00 UTC

May-23 @ 01:00 UTC

May-23@
08:00 UTC

May-23 @ 08:00 UTC

BECMG 2301/2302 13015G25KT 9999 BKN018 510022 QNH2974INS TX33/2221Z TN22/2212Z

Becoming

Becoming Conditions expected by Thu, May 23, 2019 @ 02:00 UTC

Wind
  • 130° at 15 KTS
  • {Gusting to 25 KTS
Cloud Levels
  • Broken at 1,800' AGL
Turbulence
< Light turbulence expected at 200' AGL extending to 2,200' AGL